Česky Dansk Deutsch English Español Suomi Français Magyar Italiano Nederlands norsk Polski Português svenska Türkçe

 

Het Weer

Poznan (Polen)

02:30, 22 augustus 2016 (GMT)

NWNNE
WE
SWSSE
Home            
Poznan Zielona Gora Wroclaw Ii Preschen Szczecin Cottbus Flugplatz Koszalin Liberec Berlin-Schoenefeld Slupsk Berlin-Tempelhof Berlin-Tegel Heringsdorf Gdansk-Rebiechowo Dresden-Klotzsche Holzdorf Trollenhagen Warszawa-Okecie Katowice Wittstock Praha / Ruzyne Ostrava / Mosnov Roenne

Om een weerknop op uw website of weblog te plaatsen, copieer onderstaande code en plak die in uw pagina. In het eerste vakje staat HTML-code, in het tweede vakje UBB-code.


Add to Google

Details

Wind speed:1 bf, 3 kn, 1.5 m/s, 3.5 miles/h, 5.6 km/h
Wind direction:WSW, 250°
Visibility:Greater than 10000 m, 10 km, 32800 ft, 6.2 miles
Clouds:CAVOC
Temperature:14°C, 57°F
Dew-point:12°C, 54°F
Atmospheric pressure:1020 hPa, 765.1 mmHg, 30.12 inHg, 1.007 atm
Relative humidity:87.7 %
METAR:EPPO 220230Z 25003KT CAVOK 14/12 Q1020

Snelkoppelingen

Actuele weersinformatie van de hele wereld. Voeg locaties toe met het plus (+) symbool. Deze snelkoppelingen kunnen worden toegevoegd aan Google.

Lid van de Technetium groep

website free tracking
StatCounter NetStat W3C Validator

17-08-2022 06:36:53
astro.technetium.be money.technetium.be phote.technetium.be tafeltennistafel.technetium.be www.ligfiets.net